Time;durP1;ratioP1;P1;durP2;ratioP2;P2;SDS_P1;SDS_P2;PMS_P1;PMS_P2;Temp;Humidity;BMP_temperature;BMP_pressure;BME280_temperature;BME280_humidity;BME280_pressure;Samples;Min_cycle;Max_cycle;Signal;HPM_P1;HPM_P2
2023/01/16 00:00:15;;;;;;;14.00;3.60;;;7.40;92.80;;;;;;5085079;28;21015;-56
2023/01/16 00:02:40;;;;;;;17.65;3.53;;;7.40;92.80;;;;;;5083677;28;20031;-55
2023/01/16 00:05:06;;;;;;;20.15;3.80;;;7.40;92.80;;;;;;5084889;28;20033;-55
2023/01/16 00:07:32;;;;;;;12.60;3.38;;;7.40;92.80;;;;;;5083710;28;20176;-55
2023/01/16 00:09:57;;;;;;;11.48;2.92;;;7.40;92.80;;;;;;5083483;28;20032;-55
2023/01/16 00:12:23;;;;;;;14.52;3.60;;;7.40;92.80;;;;;;5083320;28;20031;-55
2023/01/16 00:14:48;;;;;;;11.38;3.70;;;7.40;92.80;;;;;;5083458;28;20024;-55
2023/01/16 00:17:14;;;;;;;11.65;3.05;;;7.40;92.70;;;;;;5083589;28;20032;-55
2023/01/16 00:19:39;;;;;;;12.52;3.42;;;7.40;92.70;;;;;;5084898;28;20048;-55
2023/01/16 00:22:05;;;;;;;14.48;3.58;;;7.40;92.70;;;;;;5083272;28;20517;-55
2023/01/16 00:24:30;;;;;;;12.85;3.00;;;7.30;92.70;;;;;;5083632;28;20034;-55
2023/01/16 00:26:56;;;;;;;8.68;2.78;;;7.30;92.70;;;;;;5083291;28;20040;-55
2023/01/16 00:29:22;;;;;;;11.50;3.30;;;7.30;92.80;;;;;;5084710;28;20059;-55
2023/01/16 00:31:47;;;;;;;11.15;2.58;;;7.30;92.80;;;;;;5083454;28;20024;-55
2023/01/16 00:34:13;;;;;;;11.15;2.70;;;7.30;92.80;;;;;;5084573;28;20031;-55
2023/01/16 00:36:39;;;;;;;12.02;3.08;;;7.30;92.80;;;;;;5066418;28;20060;-55
2023/01/16 00:39:05;;;;;;;10.18;2.50;;;7.30;92.80;;;;;;5083014;28;20055;-55
2023/01/16 00:41:30;;;;;;;13.30;2.85;;;7.30;92.80;;;;;;5084831;28;20033;-56
2023/01/16 00:43:58;;;;;;;8.85;2.38;;;7.30;92.80;;;;;;5084510;28;20033;-55
2023/01/16 00:46:24;;;;;;;8.75;2.55;;;7.20;92.80;;;;;;5066580;28;20048;-55
2023/01/16 00:48:50;;;;;;;9.80;2.78;;;7.20;92.80;;;;;;5084711;28;20078;-55
2023/01/16 00:51:15;;;;;;;14.35;2.92;;;7.20;92.80;;;;;;5087103;28;20032;-55
2023/01/16 00:53:41;;;;;;;13.02;3.42;;;7.20;92.80;;;;;;5087320;28;20032;-55
2023/01/16 00:56:06;;;;;;;10.98;2.55;;;7.20;93.20;;;;;;5070491;28;20136;-55
2023/01/16 00:58:32;;;;;;;10.65;2.75;;;7.20;92.90;;;;;;5087482;28;20060;-55
2023/01/16 01:00:58;;;;;;;8.43;2.30;;;7.20;92.90;;;;;;5086989;28;20025;-55
2023/01/16 01:03:23;;;;;;;14.02;2.80;;;7.20;92.90;;;;;;5087095;28;20114;-55
2023/01/16 01:05:49;;;;;;;10.25;2.42;;;7.20;92.90;;;;;;5088281;28;20111;-55
2023/01/16 01:08:14;;;;;;;7.43;2.50;;;7.20;92.90;;;;;;5088553;28;20043;-55
2023/01/16 01:10:40;;;;;;;5.63;2.13;;;7.10;92.90;;;;;;5087109;28;20027;-55
2023/01/16 01:13:06;;;;;;;7.28;2.38;;;7.10;92.90;;;;;;5087355;28;20016;-55
2023/01/16 01:15:32;;;;;;;13.13;2.72;;;7.10;92.90;;;;;;5086745;28;20056;-55
2023/01/16 01:17:57;;;;;;;9.50;2.40;;;7.10;92.90;;;;;;5086765;28;20094;-55
2023/01/16 01:20:23;;;;;;;6.55;2.25;;;7.10;93.00;;;;;;5088023;28;20060;-55
2023/01/16 01:22:48;;;;;;;7.90;2.60;;;7.10;93.00;;;;;;5086596;28;20101;-54
2023/01/16 01:25:14;;;;;;;8.93;2.30;;;7.10;93.00;;;;;;5086229;28;20134;-55
2023/01/16 01:27:40;;;;;;;7.30;2.53;;;7.10;93.00;;;;;;5087746;28;20025;-55
2023/01/16 01:30:06;;;;;;;9.98;2.20;;;7.10;93.00;;;;;;5086339;28;20023;-55
2023/01/16 01:32:31;;;;;;;6.70;2.30;;;7.00;93.00;;;;;;5086550;28;20097;-55
2023/01/16 01:34:58;;;;;;;5.28;2.38;;;7.00;93.00;;;;;;5087621;28;20064;-55
2023/01/16 01:37:24;;;;;;;5.35;1.95;;;7.00;93.00;;;;;;5086283;28;20021;-55
2023/01/16 01:39:50;;;;;;;9.50;2.40;;;7.00;93.00;;;;;;5087800;28;20027;-55
2023/01/16 01:45:17;;;;;;;8.05;2.40;;;7.00;93.10;;;;;;5086113;28;20043;-54
2023/01/16 01:48:19;;;;;;;6.00;2.08;;;7.00;93.00;;;;;;5086103;28;20087;-55
2023/01/16 01:50:52;;;;;;;7.20;2.13;;;7.00;93.00;;;;;;5064560;28;20032;-55
2023/01/16 01:53:37;;;;;;;9.27;2.00;;;7.00;93.00;;;;;;5087472;28;20518;-55
2023/01/16 01:56:34;;;;;;;4.75;1.67;;;7.00;93.00;;;;;;5086019;28;20056;-55
2023/01/16 01:59:02;;;;;;;5.35;2.03;;;6.90;93.00;;;;;;5086294;28;20040;-55
2023/01/16 02:01:27;;;;;;;8.55;2.10;;;6.90;93.10;;;;;;5085677;28;20029;-55
2023/01/16 02:03:58;;;;;;;5.45;1.85;;;6.90;93.10;;;;;;5086097;28;20029;-55
2023/01/16 02:06:32;;;;;;;7.78;2.45;;;6.90;93.10;;;;;;5069037;28;20046;-55
2023/01/16 02:08:57;;;;;;;7.00;1.75;;;6.90;93.10;;;;;;5085614;28;20043;-55
2023/01/16 02:11:35;;;;;;;6.15;2.33;;;6.90;93.10;;;;;;5085625;28;20084;-55
2023/01/16 02:14:12;;;;;;;5.82;1.85;;;6.80;93.10;;;;;;5069227;28;20214;-55
2023/01/16 02:19:37;;;;;;;5.85;1.80;;;6.80;93.10;;;;;;5085953;28;20186;-55
2023/01/16 02:22:41;;;;;;;5.68;2.08;;;6.80;93.10;;;;;;5085474;28;20131;-55
2023/01/16 02:25:28;;;;;;;7.80;1.85;;;6.80;93.20;;;;;;5086552;28;20123;-55
2023/01/16 02:28:17;;;;;;;6.22;2.13;;;6.80;93.20;;;;;;5085434;28;20099;-55
2023/01/16 02:31:05;;;;;;;4.07;1.70;;;6.80;93.20;;;;;;5085201;28;20024;-55
2023/01/16 02:33:53;;;;;;;5.13;1.70;;;6.80;93.20;;;;;;5086753;28;20445;-55
2023/01/16 02:36:30;;;;;;;6.78;1.55;;;6.80;93.20;;;;;;5085291;28;20059;-55
2023/01/16 02:39:12;;;;;;;4.03;1.60;;;6.80;93.20;;;;;;5086402;28;20396;-55
2023/01/16 02:41:49;;;;;;;6.93;1.90;;;6.80;93.20;;;;;;5085574;28;20101;-55
2023/01/16 02:44:24;;;;;;;3.58;1.52;;;6.70;93.20;;;;;;5085093;28;20097;-55
2023/01/16 02:47:04;;;;;;;5.40;1.77;;;6.70;93.20;;;;;;5084838;28;20063;-55
2023/01/16 02:49:40;;;;;;;5.50;1.90;;;6.70;93.20;;;;;;5085419;28;20255;-55
2023/01/16 02:52:12;;;;;;;5.28;1.80;;;6.70;93.20;;;;;;5085135;28;20035;-56
2023/01/16 02:55:03;;;;;;;3.83;1.65;;;6.70;93.20;;;;;;5086216;28;20036;-55
2023/01/16 02:57:56;;;;;;;6.18;1.60;;;6.60;93.20;;;;;;5085126;28;20187;-55
2023/01/16 03:00:22;;;;;;;6.18;1.65;;;6.70;93.20;;;;;;5082944;28;20041;-55
2023/01/16 03:02:47;;;;;;;5.35;2.20;;;6.60;93.20;;;;;;5067917;28;20082;-55
2023/01/16 03:05:13;;;;;;;6.88;1.70;;;6.60;93.30;;;;;;5084659;28;20036;-55
2023/01/16 03:07:44;;;;;;;4.30;1.52;;;6.60;93.30;;;;;;5067952;28;20361;-55
2023/01/16 03:10:42;;;;;;;5.45;1.70;;;6.60;93.20;;;;;;5084590;28;20020;-55
2023/01/16 03:13:37;;;;;;;7.07;1.83;;;6.60;93.20;;;;;;5084246;28;20021;-55
2023/01/16 03:16:17;;;;;;;6.75;1.70;;;6.60;93.20;;;;;;5084294;28;20059;-55
2023/01/16 03:18:50;;;;;;;3.33;1.40;;;6.60;93.20;;;;;;5084488;28;20028;-55
2023/01/16 03:21:37;;;;;;;2.88;1.52;;;6.60;93.20;;;;;;5084496;28;20060;-55
2023/01/16 03:24:12;;;;;;;7.03;1.20;;;6.60;93.20;;;;;;5085945;28;20050;-56
2023/01/16 03:26:43;;;;;;;5.57;1.48;;;6.60;93.20;;;;;;5084222;28;20037;-55
2023/01/16 03:29:14;;;;;;;8.18;1.70;;;6.60;93.20;;;;;;5067943;28;20124;-55
2023/01/16 03:32:05;;;;;;;4.05;1.20;;;6.60;93.20;;;;;;5084288;28;20031;-55
2023/01/16 03:34:45;;;;;;;4.20;1.45;;;6.60;93.20;;;;;;5075083;28;20044;-55
2023/01/16 03:37:19;;;;;;;3.55;1.30;;;6.60;93.20;;;;;;5084102;28;20065;-55
2023/01/16 03:39:51;;;;;;;4.63;1.63;;;6.70;93.20;;;;;;5084406;28;20093;-55
2023/01/16 03:42:24;;;;;;;5.55;1.73;;;6.60;93.20;;;;;;5083759;28;20278;-55
2023/01/16 03:45:00;;;;;;;6.88;1.73;;;6.70;93.20;;;;;;5083938;28;20130;-55
2023/01/16 03:47:30;;;;;;;4.57;1.30;;;6.60;93.20;;;;;;5084083;28;20032;-55
2023/01/16 03:49:59;;;;;;;7.30;1.70;;;6.60;93.30;;;;;;5083888;28;20021;-55
2023/01/16 03:52:30;;;;;;;4.80;1.50;;;6.60;93.30;;;;;;5084089;28;20044;-55
2023/01/16 03:55:05;;;;;;;3.55;1.20;;;6.60;93.30;;;;;;5083885;28;20024;-55
2023/01/16 03:57:36;;;;;;;3.67;1.40;;;6.60;93.30;;;;;;5068130;28;20266;-55
2023/01/16 04:00:02;;;;;;;3.67;1.30;;;6.60;93.30;;;;;;5083862;28;20039;-55
2023/01/16 04:02:28;;;;;;;7.18;1.60;;;6.60;93.30;;;;;;5083803;28;20493;-55
2023/01/16 04:05:18;;;;;;;3.03;1.52;;;6.60;93.40;;;;;;5084981;28;20025;-55
2023/01/16 04:08:10;;;;;;;6.43;1.60;;;6.60;93.40;;;;;;5078239;28;20090;-55
2023/01/16 04:10:38;;;;;;;3.50;1.33;;;6.60;93.40;;;;;;5083684;28;20116;-55
2023/01/16 04:13:07;;;;;;;3.63;1.20;;;6.60;93.30;;;;;;5083476;28;20035;-55
2023/01/16 04:15:34;;;;;;;3.95;1.35;;;6.60;93.30;;;;;;5083701;28;20035;-55
2023/01/16 04:17:59;;;;;;;2.92;1.38;;;6.60;93.30;;;;;;5083688;28;20108;-55
2023/01/16 04:20:25;;;;;;;3.67;1.30;;;6.60;93.30;;;;;;5083351;28;20105;-55
2023/01/16 04:22:51;;;;;;;3.40;1.42;;;6.60;93.30;;;;;;5066661;28;20081;-55
2023/01/16 04:25:17;;;;;;;3.08;1.30;;;6.50;93.30;;;;;;5083253;28;20441;-55
2023/01/16 04:27:42;;;;;;;6.78;1.38;;;6.50;93.40;;;;;;5083387;28;20028;-55
2023/01/16 04:30:08;;;;;;;5.22;1.40;;;6.50;93.40;;;;;;5083417;28;20017;-55
2023/01/16 04:32:34;;;;;;;2.80;1.30;;;6.50;93.50;;;;;;5083020;28;20037;-56
2023/01/16 04:34:59;;;;;;;7.40;1.58;;;6.60;93.50;;;;;;5066573;28;20081;-55
2023/01/16 04:37:25;;;;;;;3.33;1.33;;;6.60;93.50;;;;;;5084543;28;20025;-55
2023/01/16 04:39:52;;;;;;;5.90;1.40;;;6.50;93.60;;;;;;5084662;28;20017;-56
2023/01/16 04:42:18;;;;;;;3.42;1.38;;;6.50;93.60;;;;;;5083300;28;20032;-55
2023/01/16 04:44:43;;;;;;;4.30;1.13;;;6.50;93.60;;;;;;5083235;28;20054;-55
2023/01/16 04:47:09;;;;;;;4.10;1.20;;;6.50;93.70;;;;;;5083194;28;20029;-55
2023/01/16 04:49:34;;;;;;;3.05;1.38;;;6.60;93.60;;;;;;5066353;28;20029;-55
2023/01/16 04:52:00;;;;;;;2.30;1.10;;;6.50;93.50;;;;;;5066471;28;20092;-55
2023/01/16 04:54:26;;;;;;;3.15;1.48;;;6.50;93.50;;;;;;5083217;28;20025;-55
2023/01/16 04:56:51;;;;;;;2.50;1.30;;;6.50;93.50;;;;;;5084606;28;20108;-55
2023/01/16 04:59:18;;;;;;;4.00;1.15;;;6.50;93.50;;;;;;5083175;28;20040;-55
2023/01/16 05:01:43;;;;;;;5.30;1.33;;;6.50;93.50;;;;;;5083157;28;20028;-55
2023/01/16 05:04:09;;;;;;;3.28;1.35;;;6.50;93.50;;;;;;5083214;28;20538;-55
2023/01/16 05:06:35;;;;;;;2.50;1.13;;;6.50;93.50;;;;;;5082808;28;20134;-55
2023/01/16 05:09:01;;;;;;;3.95;1.40;;;6.50;93.50;;;;;;5083114;28;20041;-55
2023/01/16 05:11:26;;;;;;;2.28;1.10;;;6.50;93.40;;;;;;5082961;28;20081;-56
2023/01/16 05:13:52;;;;;;;3.63;1.45;;;6.50;93.40;;;;;;5084341;28;20033;-55
2023/01/16 05:16:17;;;;;;;3.58;1.17;;;6.50;93.40;;;;;;5084265;28;20028;-55
2023/01/16 05:18:43;;;;;;;3.50;1.23;;;6.50;93.40;;;;;;5084210;28;20040;-55
2023/01/16 05:21:09;;;;;;;1.65;1.00;;;6.40;93.30;;;;;;5065982;28;20036;-55
2023/01/16 05:23:35;;;;;;;3.38;1.15;;;6.40;93.30;;;;;;5082613;28;20109;-55
2023/01/16 05:26:01;;;;;;;4.45;1.75;;;6.40;93.30;;;;;;5082895;28;20092;-55
2023/01/16 05:28:26;;;;;;;6.72;1.20;;;6.50;93.30;;;;;;5082888;28;20029;-55
2023/01/16 05:30:52;;;;;;;4.15;1.25;;;6.50;93.30;;;;;;5082779;28;20409;-55
2023/01/16 05:33:18;;;;;;;6.72;1.45;;;6.50;93.20;;;;;;5084064;28;20064;-55
2023/01/16 05:35:45;;;;;;;5.88;1.23;;;6.40;93.10;;;;;;5084002;28;20025;-55
2023/01/16 05:38:10;;;;;;;3.35;1.08;;;6.40;93.10;;;;;;5086406;28;20043;-55
2023/01/16 05:40:36;;;;;;;3.92;1.30;;;6.40;93.10;;;;;;5086324;28;20028;-55
2023/01/16 05:43:01;;;;;;;4.05;1.63;;;6.40;93.10;;;;;;5086814;28;20043;-55
2023/01/16 05:45:27;;;;;;;16.38;1.75;;;6.30;93.00;;;;;;5086094;28;20024;-55
2023/01/16 05:47:52;;;;;;;8.05;1.38;;;6.40;92.90;;;;;;5086367;28;20028;-55
2023/01/16 05:50:18;;;;;;;3.88;1.45;;;6.30;92.70;;;;;;5086291;28;20020;-55
2023/01/16 05:52:43;;;;;;;3.38;1.20;;;6.30;92.80;;;;;;5087436;28;20027;-55
2023/01/16 05:55:09;;;;;;;7.55;1.60;;;6.30;93.00;;;;;;5086052;28;20056;-55
2023/01/16 05:57:35;;;;;;;2.20;1.20;;;6.30;92.80;;;;;;5086056;28;20016;-55
2023/01/16 06:00:00;;;;;;;3.70;1.17;;;6.20;92.80;;;;;;5085991;28;20579;-55
2023/01/16 06:02:26;;;;;;;4.07;1.30;;;6.20;92.90;;;;;;5085856;28;20060;-55
2023/01/16 06:04:52;;;;;;;4.93;1.40;;;6.20;92.90;;;;;;5085802;28;20532;-55
2023/01/16 06:07:17;;;;;;;4.25;1.27;;;6.20;92.90;;;;;;5085975;28;20028;-55
2023/01/16 06:09:43;;;;;;;7.93;1.20;;;6.20;92.90;;;;;;5086965;28;20028;-55
2023/01/16 06:12:12;;;;;;;3.03;1.25;;;6.20;92.90;;;;;;5085755;28;20182;-55
2023/01/16 06:14:38;;;;;;;3.95;1.15;;;6.20;93.00;;;;;;5085994;28;20036;-55
2023/01/16 06:17:03;;;;;;;6.15;1.10;;;6.20;92.90;;;;;;5087185;28;20035;-55
2023/01/16 06:19:29;;;;;;;2.20;1.02;;;6.20;92.90;;;;;;5087026;28;20092;-55
2023/01/16 06:21:54;;;;;;;5.22;1.38;;;6.10;92.80;;;;;;5087099;28;20029;-55
2023/01/16 06:24:20;;;;;;;3.45;1.77;;;6.10;93.20;;;;;;5085527;28;20051;-55
2023/01/16 06:26:45;;;;;;;2.83;1.65;;;6.10;92.90;;;;;;5083330;28;20153;-55
2023/01/16 06:29:11;;;;;;;5.40;1.70;;;6.10;92.90;;;;;;5097519;28;20047;-55
2023/01/16 06:31:43;;;;;;;5.60;1.45;;;6.10;92.80;;;;;;5082690;28;20395;-55
2023/01/16 06:34:09;;;;;;;6.25;1.77;;;6.10;92.80;;;;;;5103280;28;20044;-55
2023/01/16 06:36:34;;;;;;;5.05;1.60;;;6.10;92.70;;;;;;5086563;28;20032;-55
2023/01/16 06:39:00;;;;;;;3.40;1.20;;;6.00;92.60;;;;;;5083517;28;20028;-55
2023/01/16 06:41:25;;;;;;;8.52;1.70;;;6.00;92.70;;;;;;5085770;28;20032;-55
2023/01/16 06:43:51;;;;;;;3.83;1.50;;;6.00;92.70;;;;;;5084458;28;20029;-55
2023/01/16 06:46:16;;;;;;;5.63;1.60;;;6.00;92.70;;;;;;5086095;28;20067;-55
2023/01/16 06:48:42;;;;;;;3.67;1.52;;;6.00;92.70;;;;;;5102165;28;20084;-55
2023/01/16 06:51:09;;;;;;;1.70;1.23;;;6.00;92.70;;;;;;5102778;28;20017;-55
2023/01/16 06:53:35;;;;;;;5.40;1.58;;;6.00;92.70;;;;;;5084829;28;20102;-55
2023/01/16 06:56:01;;;;;;;4.43;1.60;;;6.00;92.70;;;;;;5086232;28;20032;-55
2023/01/16 06:58:26;;;;;;;6.22;1.35;;;6.00;92.80;;;;;;5084852;28;20039;-55
2023/01/16 07:00:52;;;;;;;3.83;1.45;;;6.00;92.70;;;;;;5084839;28;20034;-55
2023/01/16 07:03:18;;;;;;;2.17;1.50;;;6.00;92.70;;;;;;5102166;28;20086;-55
2023/01/16 07:05:44;;;;;;;2.83;1.35;;;6.00;92.70;;;;;;5085015;28;20096;-55
2023/01/16 07:08:10;;;;;;;2.00;1.50;;;6.00;92.60;;;;;;5085112;28;20025;-55
2023/01/16 07:10:35;;;;;;;2.50;1.50;;;6.00;92.70;;;;;;5101648;28;20035;-55
2023/01/16 07:13:01;;;;;;;2.28;1.20;;;5.90;92.70;;;;;;5101560;28;20080;-55
2023/01/16 07:23:57;;;;;;;2.50;1.50;;;5.90;92.80;;;;;;5099140;28;20066;-55
2023/01/16 07:26:22;;;;;;;3.97;1.50;;;5.90;92.90;;;;;;5084033;28;20039;-55
2023/01/16 07:28:48;;;;;;;2.28;1.27;;;5.80;92.90;;;;;;5101298;28;20056;-55
2023/01/16 07:31:14;;;;;;;4.78;1.40;;;5.80;92.90;;;;;;5101237;28;20071;-55
2023/01/16 07:33:39;;;;;;;2.65;1.30;;;5.80;92.90;;;;;;5084241;28;20076;-55
2023/01/16 07:36:05;;;;;;;3.45;1.50;;;5.80;92.90;;;;;;5085551;28;20028;-55
2023/01/16 07:38:31;;;;;;;9.20;1.70;;;5.80;92.90;;;;;;5097764;28;20040;-55
2023/01/16 07:40:56;;;;;;;5.13;1.60;;;5.80;92.80;;;;;;5084031;28;20025;-55
2023/01/16 07:43:22;;;;;;;6.25;1.60;;;5.80;92.90;;;;;;5084056;28;20036;-54
2023/01/16 07:45:52;;;;;;;6.38;1.60;;;5.80;92.90;;;;;;5066435;28;20047;-54
2023/01/16 07:48:21;;;;;;;5.30;2.05;;;5.80;92.90;;;;;;5083842;28;20096;-55
2023/01/16 07:50:54;;;;;;;5.43;1.75;;;5.80;92.90;;;;;;5083522;28;20024;-55
2023/01/16 07:53:21;;;;;;;11.27;2.20;;;5.80;92.90;;;;;;5083737;28;20033;-55
2023/01/16 07:55:53;;;;;;;6.10;2.40;;;5.80;92.90;;;;;;5085031;28;20028;-55
2023/01/16 07:58:19;;;;;;;10.27;2.40;;;5.80;92.90;;;;;;5084528;28;20038;-55
2023/01/16 08:00:45;;;;;;;24.08;3.00;;;5.80;92.90;;;;;;5083555;28;20056;-55
2023/01/16 08:03:10;;;;;;;12.18;2.47;;;5.80;93.00;;;;;;5084832;28;20028;-55
2023/01/16 08:05:36;;;;;;;15.57;2.85;;;5.80;92.90;;;;;;5083505;28;20071;-55
2023/01/16 08:08:02;;;;;;;21.10;3.40;;;5.80;93.00;;;;;;5084816;28;20028;-55
2023/01/16 08:10:27;;;;;;;16.75;2.67;;;5.80;92.90;;;;;;5084949;28;20035;-55
2023/01/16 08:12:53;;;;;;;13.70;2.50;;;5.80;92.90;;;;;;5083667;28;20465;-55
2023/01/16 08:15:18;;;;;;;21.75;3.00;;;5.80;92.90;;;;;;5083666;28;20029;-55
2023/01/16 08:17:44;;;;;;;20.05;3.22;;;5.80;92.90;;;;;;5083680;28;20480;-55
2023/01/16 08:20:10;;;;;;;12.38;2.75;;;5.80;92.90;;;;;;5083509;28;20031;-55
2023/01/16 08:22:44;;;;;;;24.15;3.65;;;5.80;93.00;;;;;;5085294;28;20029;-55
2023/01/16 08:25:10;;;;;;;32.27;3.73;;;5.80;93.00;;;;;;5085087;28;20040;-55
2023/01/16 08:27:36;;;;;;;28.83;3.50;;;5.80;93.00;;;;;;5083402;28;20024;-55
2023/01/16 08:30:02;;;;;;;33.40;3.72;;;5.80;93.00;;;;;;5084592;28;20029;-55
2023/01/16 08:32:27;;;;;;;38.28;5.20;;;5.80;93.00;;;;;;5066655;28;20030;-55
2023/01/16 08:34:53;;;;;;;40.42;4.60;;;5.80;93.00;;;;;;5084625;28;20036;-54
2023/01/16 08:37:18;;;;;;;24.40;3.25;;;5.80;93.00;;;;;;5084829;28;20032;-55
2023/01/16 08:39:44;;;;;;;32.55;4.00;;;5.80;93.00;;;;;;5084580;28;20028;-55
2023/01/16 08:53:05;;;;;;;22.80;3.75;;;5.80;93.00;;;;;;5083397;28;20044;-55
2023/01/16 08:55:31;;;;;;;26.50;4.00;;;5.80;92.90;;;;;;5082773;28;20036;-55
2023/01/16 08:57:58;;;;;;;27.48;4.05;;;5.80;92.90;;;;;;5083157;28;20048;-55
2023/01/16 09:00:24;;;;;;;18.33;3.58;;;5.80;92.90;;;;;;5082763;28;20094;-55
2023/01/16 09:02:50;;;;;;;30.08;4.07;;;5.90;92.90;;;;;;5083376;28;20048;-55
2023/01/16 09:05:15;;;;;;;20.17;3.70;;;5.90;92.90;;;;;;5066239;28;20092;-55
2023/01/16 09:07:41;;;;;;;18.58;3.65;;;5.90;92.90;;;;;;5082853;28;20028;-55
2023/01/16 09:10:07;;;;;;;26.38;4.45;;;5.90;92.80;;;;;;5084607;28;20052;-54
2023/01/16 09:15:17;;;;;;;27.63;4.47;;;5.90;92.80;;;;;;5086885;28;20444;-55
2023/01/16 09:17:42;;;;;;;59.75;5.38;;;5.90;92.80;;;;;;5086716;28;20028;-55
2023/01/16 09:20:09;;;;;;;37.78;5.43;;;5.90;92.90;;;;;;5088060;28;20047;-55
2023/01/16 09:22:34;;;;;;;39.72;4.97;;;5.90;92.90;;;;;;5070091;28;20047;-55
2023/01/16 09:25:00;;;;;;;37.17;7.57;;;6.00;92.90;;;;;;5069576;28;20078;-55
2023/01/16 09:27:26;;;;;;;64.43;7.18;;;6.00;93.00;;;;;;5086470;28;20058;-55
2023/01/16 09:29:54;;;;;;;44.72;6.00;;;6.00;93.00;;;;;;5069749;28;20041;-55
2023/01/16 09:32:19;;;;;;;55.63;7.00;;;6.00;93.00;;;;;;5086410;28;20039;-55
2023/01/16 09:34:45;;;;;;;63.15;7.70;;;6.00;93.00;;;;;;5087489;28;20021;-55
2023/01/16 09:37:10;;;;;;;45.83;8.10;;;6.00;93.00;;;;;;5069434;28;20028;-55
2023/01/16 09:39:37;;;;;;;203.10;18.33;;;6.00;93.00;;;;;;5069650;28;20028;-55
2023/01/16 09:45:19;;;;;;;61.70;7.82;;;6.10;93.00;;;;;;5085908;28;20510;-55
2023/01/16 09:48:04;;;;;;;54.63;7.28;;;6.10;93.00;;;;;;5069714;28;20415;-55
2023/01/16 09:50:49;;;;;;;70.97;7.97;;;6.10;93.00;;;;;;5071059;28;20038;-55
2023/01/16 09:59:06;;;;;;;64.35;7.72;;;6.10;93.00;;;;;;5084943;28;20044;-55
2023/01/16 10:01:35;;;;;;;85.82;9.07;;;6.10;93.00;;;;;;5083027;28;20041;-55
2023/01/16 10:04:15;;;;;;;81.57;9.35;;;6.10;93.00;;;;;;5066163;28;20048;-55
2023/01/16 10:06:47;;;;;;;78.00;9.20;;;6.10;93.10;;;;;;5065576;28;20139;-55
2023/01/16 10:09:18;;;;;;;84.10;10.20;;;6.10;93.00;;;;;;5065951;28;20033;-54
2023/01/16 10:11:59;;;;;;;101.35;11.07;;;6.20;93.00;;;;;;5066895;28;20070;-55
2023/01/16 10:14:30;;;;;;;71.85;9.73;;;6.20;93.00;;;;;;5065472;28;20040;-55
2023/01/16 10:17:05;;;;;;;75.45;9.20;;;6.20;93.00;;;;;;5066949;28;20087;-55
2023/01/16 10:20:02;;;;;;;77.40;8.25;;;6.20;92.90;;;;;;5065307;28;20041;-55
2023/01/16 10:22:57;;;;;;;68.60;9.40;;;6.20;92.90;;;;;;5065121;28;20041;-55
2023/01/16 10:25:29;;;;;;;66.28;9.80;;;6.20;92.90;;;;;;5066377;28;20032;-55
2023/01/16 10:28:11;;;;;;;56.75;7.07;;;6.30;92.80;;;;;;5065134;28;20037;-55
2023/01/16 10:30:49;;;;;;;72.57;8.40;;;6.30;92.80;;;;;;5081858;28;20104;-55
2023/01/16 10:33:28;;;;;;;71.85;8.10;;;6.30;92.90;;;;;;5080382;28;20461;-55
2023/01/16 10:35:54;;;;;;;57.90;7.60;;;6.30;92.80;;;;;;5065013;28;20040;-55
2023/01/16 10:38:33;;;;;;;56.30;8.13;;;6.30;92.80;;;;;;5081918;28;20388;-55
2023/01/16 10:40:59;;;;;;;62.53;8.48;;;6.30;92.80;;;;;;5086804;28;20033;-55
2023/01/16 10:51:48;;;;;;;81.78;10.20;;;6.40;92.70;;;;;;5084613;28;20054;-56
2023/01/16 10:54:13;;;;;;;80.97;9.60;;;6.40;92.70;;;;;;5084615;28;20438;-56
2023/01/16 10:56:41;;;;;;;87.47;9.52;;;6.40;92.80;;;;;;5071449;28;20433;-56
2023/01/16 10:59:07;;;;;;;68.28;8.57;;;6.50;92.90;;;;;;5064680;28;20029;-56
2023/01/16 11:01:32;;;;;;;87.03;11.70;;;6.40;92.80;;;;;;5047512;28;20025;-56
2023/01/16 11:03:59;;;;;;;79.13;9.68;;;6.50;92.80;;;;;;5064020;28;20044;-56
2023/01/16 11:06:26;;;;;;;80.80;10.82;;;6.40;92.90;;;;;;5080648;28;20471;-56
2023/01/16 11:09:02;;;;;;;78.80;11.05;;;6.50;92.90;;;;;;5080804;28;20079;-58
2023/01/16 11:20:20;;;;;;;86.97;9.95;;;6.50;92.90;;;;;;5083803;28;20044;-56
2023/01/16 11:23:00;;;;;;;77.88;9.18;;;6.50;92.90;;;;;;5076383;28;20029;-56
2023/01/16 11:25:28;;;;;;;114.97;11.57;;;6.60;92.80;;;;;;5061387;28;20153;-56
2023/01/16 11:27:55;;;;;;;94.38;10.95;;;7.00;93.00;;;;;;5078081;28;20104;-56
2023/01/16 11:30:28;;;;;;;106.93;10.18;;;6.60;92.80;;;;;;5061582;28;20086;-56
2023/01/16 11:32:55;;;;;;;96.22;9.52;;;6.60;92.80;;;;;;5092124;28;20040;-56
2023/01/16 11:35:20;;;;;;;104.65;11.60;;;6.60;92.70;;;;;;5081265;28;20035;-56
2023/01/16 11:37:50;;;;;;;90.25;9.60;;;6.70;92.70;;;;;;5081370;28;20048;-56
2023/01/16 11:40:21;;;;;;;77.93;10.23;;;6.70;92.70;;;;;;5096828;28;20028;-56
2023/01/16 11:46:07;;;;;;;87.70;11.35;;;6.70;92.70;;;;;;5083061;28;20042;-57
2023/01/16 11:48:44;;;;;;;97.03;12.15;;;6.70;92.70;;;;;;5082893;28;20036;-56
2023/01/16 11:51:15;;;;;;;99.00;11.20;;;6.70;92.70;;;;;;5081876;28;20028;-56
2023/01/16 11:53:42;;;;;;;118.30;14.10;;;6.80;92.70;;;;;;5063410;28;20086;-55
2023/01/16 11:56:19;;;;;;;128.43;15.93;;;6.80;92.70;;;;;;5046757;28;20085;-56
2023/01/16 11:58:48;;;;;;;154.20;16.38;;;6.80;92.80;;;;;;5064280;28;20096;-56
2023/01/16 12:01:18;;;;;;;122.47;16.55;;;6.80;92.80;;;;;;5062934;28;20414;-56
2023/01/16 12:04:06;;;;;;;156.98;17.15;;;6.90;92.90;;;;;;5063052;28;20033;-56
2023/01/16 12:07:22;;;;;;;124.95;15.85;;;6.90;92.80;;;;;;5075342;28;20032;-56
2023/01/16 12:10:17;;;;;;;112.03;13.63;;;7.00;92.80;;;;;;5082732;28;20041;-58
2023/01/16 12:15:46;;;;;;;165.75;17.05;;;7.00;92.50;;;;;;5085395;28;20039;-58
2023/01/16 12:18:39;;;;;;;140.82;16.92;;;7.10;92.40;;;;;;5100818;28;20093;-59
2023/01/16 12:21:20;;;;;;;164.00;16.30;;;7.10;92.30;;;;;;5083790;28;20029;-58
2023/01/16 12:24:11;;;;;;;171.23;16.50;;;7.10;92.30;;;;;;5088293;28;20036;-58
2023/01/16 12:26:53;;;;;;;201.27;19.95;;;7.10;92.40;;;;;;5102931;28;20044;-58
2023/01/16 12:30:01;;;;;;;155.77;19.67;;;7.20;92.10;;;;;;5103074;28;20024;-59
2023/01/16 12:32:36;;;;;;;211.65;21.77;;;7.20;91.90;;;;;;5075607;28;20092;-58
2023/01/16 12:35:21;;;;;;;;;;;7.20;91.90;;;;;;5097670;28;20390;-58
2023/01/16 12:37:59;;;;;;;126.60;15.70;;;7.20;91.70;;;;;;5104987;28;19940;-58
2023/01/16 12:40:40;;;;;;;157.98;16.77;;;7.20;91.60;;;;;;5087066;28;20443;-58
2023/01/16 12:43:20;;;;;;;138.82;17.70;;;7.20;91.70;;;;;;5103718;28;20039;-58
2023/01/16 12:45:59;;;;;;;162.95;16.55;;;7.20;91.60;;;;;;5064465;28;20512;-58
2023/01/16 12:48:48;;;;;;;120.18;14.50;;;7.30;91.60;;;;;;5085353;28;20043;-57
2023/01/16 12:51:45;;;;;;;137.85;14.88;;;7.20;91.70;;;;;;5086989;28;20411;-59
2023/01/16 12:54:27;;;;;;;156.85;16.30;;;7.30;91.50;;;;;;5090022;28;20038;-58
2023/01/16 12:57:08;;;;;;;142.65;14.07;;;7.30;91.50;;;;;;5090020;28;20055;-58
2023/01/16 12:59:56;;;;;;;103.15;13.40;;;7.30;91.50;;;;;;5108661;28;20024;-59
2023/01/16 13:03:00;;;;;;;150.07;16.95;;;7.30;91.40;;;;;;5088008;28;20036;-58
2023/01/16 13:05:28;;;;;;;136.98;14.20;;;7.30;91.50;;;;;;5088249;28;20118;-58
2023/01/16 13:08:01;;;;;;;175.32;17.90;;;7.30;91.40;;;;;;5088667;28;20032;-58
2023/01/16 13:13:50;;;;;;;144.95;16.10;;;7.40;91.40;;;;;;5072368;28;20391;-59
2023/01/16 13:16:17;;;;;;;126.85;14.10;;;7.40;91.30;;;;;;5097488;28;20031;-59
2023/01/16 13:18:50;;;;;;;139.57;15.07;;;7.50;91.20;;;;;;5078571;28;20033;-59
2023/01/16 13:21:22;;;;;;;151.35;14.93;;;7.50;91.20;;;;;;5083295;28;20058;-59
2023/01/16 13:23:56;;;;;;;140.32;15.50;;;7.50;91.10;;;;;;5080389;28;20078;-58
2023/01/16 13:26:21;;;;;;;160.60;16.40;;;7.50;91.20;;;;;;5083483;28;20036;-58
2023/01/16 13:29:15;;;;;;;180.20;19.67;;;7.50;91.30;;;;;;5083652;28;20028;-58
2023/01/16 13:31:46;;;;;;;264.05;28.42;;;7.60;91.30;;;;;;5085416;28;20025;-58
2023/01/16 13:34:18;;;;;;;144.73;16.15;;;7.60;91.40;;;;;;5093812;28;20126;-58
2023/01/16 13:37:13;;;;;;;144.20;17.23;;;7.60;91.30;;;;;;5102803;28;20062;-59
2023/01/16 13:39:54;;;;;;;158.68;15.98;;;7.60;91.30;;;;;;5086188;28;20029;-58
2023/01/16 13:42:20;;;;;;;145.70;15.55;;;7.60;91.20;;;;;;5087701;28;20029;-58
2023/01/16 13:47:34;;;;;;;185.73;18.88;;;7.70;91.20;;;;;;5104966;28;20070;-58
2023/01/16 13:50:07;;;;;;;146.85;16.63;;;7.80;91.20;;;;;;5105477;28;20047;-58
2023/01/16 13:52:34;;;;;;;115.15;14.75;;;7.80;91.10;;;;;;5089542;28;20028;-58
2023/01/16 13:55:01;;;;;;;138.85;14.90;;;7.80;91.10;;;;;;5089150;28;20092;-58
2023/01/16 13:57:27;;;;;;;121.00;15.07;;;7.80;91.10;;;;;;5105646;28;20032;-59
2023/01/16 14:00:00;;;;;;;128.85;13.50;;;7.80;91.00;;;;;;5106438;28;20024;-58
2023/01/16 14:02:25;;;;;;;91.55;12.73;;;7.80;91.10;;;;;;5082319;28;20055;-58
2023/01/16 14:05:06;;;;;;;124.55;13.05;;;7.80;91.00;;;;;;5098433;28;20024;-58
2023/01/16 14:10:45;;;;;;;103.50;11.80;;;7.80;91.00;;;;;;5106950;28;20051;-59
2023/01/16 14:13:33;;;;;;;122.57;13.73;;;7.90;91.00;;;;;;5105964;28;20036;-58
2023/01/16 14:19:02;;;;;;;80.50;10.95;;;7.90;91.00;;;;;;5105753;28;20038;-58